createdAt,value
2017-12-26T00:00:45.990Z,74.80
2017-12-26T00:03:14.935Z,90.70
2017-12-26T00:05:43.475Z,88.62
2017-12-26T00:08:11.801Z,82.90
2017-12-26T00:10:41.326Z,89.65
2017-12-26T00:13:10.670Z,88.97
2017-12-26T00:15:39.676Z,88.00
2017-12-26T00:18:08.127Z,87.55
2017-12-26T00:20:37.107Z,74.03
2017-12-26T00:23:06.378Z,75.22
2017-12-26T00:25:35.346Z,77.00
2017-12-26T00:28:04.222Z,88.12
2017-12-26T00:30:33.513Z,95.45
2017-12-26T00:33:01.906Z,94.32
2017-12-26T00:35:30.728Z,83.30
2017-12-26T00:37:59.225Z,90.40
2017-12-26T00:40:28.285Z,79.20
2017-12-26T00:42:57.348Z,85.75
2017-12-26T00:45:26.570Z,77.80
2017-12-26T00:47:55.041Z,81.75
2017-12-26T00:50:24.080Z,94.85
2017-12-26T00:52:53.694Z,76.70
2017-12-26T00:55:22.064Z,82.55
2017-12-26T00:57:51.062Z,70.37
2017-12-26T01:00:19.407Z,113.03
2017-12-26T01:02:49.356Z,76.57
2017-12-26T01:05:18.385Z,90.97
2017-12-26T01:07:47.605Z,84.18
2017-12-26T01:10:17.300Z,82.35
2017-12-26T01:12:45.644Z,75.55
2017-12-26T01:15:14.887Z,78.35
2017-12-26T01:17:43.549Z,86.28
2017-12-26T01:20:12.109Z,73.07
2017-12-26T01:22:41.220Z,78.93
2017-12-26T01:25:10.501Z,81.53
2017-12-26T01:27:39.071Z,95.25
2017-12-26T01:30:07.652Z,88.82
2017-12-26T01:32:36.085Z,84.78
2017-12-26T01:35:04.474Z,80.00
2017-12-26T01:37:33.364Z,81.90
2017-12-26T01:40:02.526Z,82.12
2017-12-26T01:42:31.409Z,78.03
2017-12-26T01:44:59.781Z,78.05
2017-12-26T01:47:29.749Z,63.85
2017-12-26T01:49:58.113Z,56.28
2017-12-26T01:52:27.060Z,89.50
2017-12-26T01:54:55.551Z,83.37
2017-12-26T01:57:24.424Z,70.57
2017-12-26T01:59:53.582Z,79.85
2017-12-26T02:02:22.014Z,76.22
2017-12-26T02:04:50.956Z,76.47
2017-12-26T02:07:19.877Z,57.45
2017-12-26T02:09:48.331Z,82.65
2017-12-26T02:12:19.100Z,73.62
2017-12-26T02:14:48.184Z,75.65
2017-12-26T02:17:17.033Z,79.28
2017-12-26T02:19:46.455Z,76.60
2017-12-26T02:22:16.106Z,79.55
2017-12-26T02:24:44.465Z,76.80
2017-12-26T02:27:12.849Z,66.35
2017-12-26T02:29:41.183Z,78.55
2017-12-26T02:32:10.147Z,65.37
2017-12-26T02:34:38.589Z,70.65
2017-12-26T02:37:07.072Z,86.35
2017-12-26T02:39:35.397Z,72.95
2017-12-26T02:42:06.566Z,85.03
2017-12-26T02:44:35.480Z,78.43
2017-12-26T02:47:04.859Z,94.15
2017-12-26T02:49:33.876Z,85.32
2017-12-26T02:52:02.958Z,84.50
2017-12-26T02:54:31.865Z,75.10
2017-12-26T02:57:00.440Z,69.37
2017-12-26T02:59:28.761Z,82.30
2017-12-26T03:01:57.088Z,97.03
2017-12-26T03:04:25.955Z,76.75
2017-12-26T03:06:55.005Z,83.00
2017-12-26T03:09:23.335Z,86.45
2017-12-26T03:11:51.806Z,77.20
2017-12-26T03:14:20.877Z,88.28
2017-12-26T03:16:49.388Z,89.82
2017-12-26T03:19:18.192Z,68.97
2017-12-26T03:21:46.508Z,86.60
2017-12-26T03:24:14.848Z,79.43
2017-12-26T03:26:43.748Z,70.32
2017-12-26T03:29:12.592Z,59.10
2017-12-26T03:31:40.924Z,59.80
2017-12-26T03:34:09.396Z,70.20
2017-12-26T03:36:38.504Z,67.07
2017-12-26T03:39:07.196Z,60.05
2017-12-26T03:41:35.963Z,67.87
2017-12-26T03:44:04.800Z,64.18
2017-12-26T03:46:33.167Z,55.60
2017-12-26T03:49:01.633Z,64.18
2017-12-26T03:51:30.456Z,68.70
2017-12-26T03:53:58.816Z,52.42
2017-12-26T03:56:27.245Z,62.33
2017-12-26T03:58:57.053Z,58.38
2017-12-26T04:01:25.456Z,53.63
2017-12-26T04:03:54.488Z,57.83
2017-12-26T04:06:23.505Z,51.30
2017-12-26T04:08:59.536Z,52.62
2017-12-26T04:11:28.343Z,41.85
2017-12-26T04:13:57.330Z,54.65
2017-12-26T04:16:25.709Z,50.85
2017-12-26T04:18:54.694Z,49.88
2017-12-26T04:21:23.103Z,70.75
2017-12-26T04:23:52.903Z,62.22
2017-12-26T04:26:21.277Z,46.63
2017-12-26T04:28:51.884Z,47.13
2017-12-26T04:31:20.979Z,62.22
2017-12-26T04:33:49.308Z,42.72
2017-12-26T04:36:17.760Z,40.60
2017-12-26T04:38:47.639Z,45.30
2017-12-26T04:41:16.716Z,51.37
2017-12-26T04:43:45.232Z,52.17
2017-12-26T04:46:14.094Z,47.65
2017-12-26T04:48:43.195Z,40.90
2017-12-26T04:51:12.116Z,39.47
2017-12-26T04:53:40.496Z,46.45
2017-12-26T04:56:10.201Z,29.35
2017-12-26T04:58:38.644Z,31.87
2017-12-26T05:01:10.261Z,33.58
2017-12-26T05:03:39.248Z,35.78
2017-12-26T05:06:07.589Z,37.80
2017-12-26T05:08:36.680Z,33.40
2017-12-26T05:11:05.736Z,40.47
2017-12-26T05:13:34.092Z,39.03
2017-12-26T05:16:02.988Z,35.38
2017-12-26T05:18:31.305Z,38.63
2017-12-26T05:21:00.446Z,36.70
2017-12-26T05:23:28.940Z,34.97
2017-12-26T05:25:58.004Z,28.92
2017-12-26T05:28:26.926Z,39.17
2017-12-26T05:30:55.388Z,34.22
2017-12-26T05:33:24.275Z,38.80
2017-12-26T05:35:52.632Z,37.03
2017-12-26T05:38:21.393Z,32.25
2017-12-26T05:40:50.161Z,33.17
2017-12-26T05:43:19.245Z,34.88
2017-12-26T05:45:47.931Z,34.13
2017-12-26T05:48:16.572Z,30.62
2017-12-26T05:50:45.480Z,36.95
2017-12-26T05:53:13.865Z,38.47
2017-12-26T05:55:43.040Z,41.75
2017-12-26T05:58:11.983Z,40.80
2017-12-26T06:00:40.644Z,35.90
2017-12-26T06:03:09.380Z,42.00
2017-12-26T06:05:37.768Z,39.90
2017-12-26T06:08:06.792Z,38.42
2017-12-26T06:10:35.207Z,32.58
2017-12-26T06:13:04.099Z,31.70
2017-12-26T06:15:32.522Z,31.67
2017-12-26T06:18:00.844Z,36.35
2017-12-26T06:20:29.746Z,32.67
2017-12-26T06:22:58.175Z,35.72
2017-12-26T06:25:26.581Z,31.98
2017-12-26T06:27:55.564Z,28.77
2017-12-26T06:30:24.677Z,24.90
2017-12-26T06:32:53.283Z,28.42
2017-12-26T06:35:21.839Z,28.55
2017-12-26T06:37:50.260Z,24.70
2017-12-26T06:40:19.221Z,30.85
2017-12-26T06:42:47.564Z,33.85
2017-12-26T06:45:16.557Z,28.52
2017-12-26T06:47:44.893Z,31.83
2017-12-26T06:50:13.306Z,27.15
2017-12-26T06:52:42.316Z,29.40
2017-12-26T06:55:10.640Z,30.58
2017-12-26T06:57:39.821Z,26.30
2017-12-26T07:00:08.208Z,26.65
2017-12-26T07:02:36.979Z,27.92
2017-12-26T07:05:05.306Z,23.10
2017-12-26T07:07:34.344Z,29.83
2017-12-26T07:10:02.769Z,30.80
2017-12-26T07:12:31.332Z,31.60
2017-12-26T07:15:01.344Z,27.17
2017-12-26T07:17:31.412Z,42.20
2017-12-26T07:20:00.660Z,23.98
2017-12-26T07:22:29.968Z,27.92
2017-12-26T07:24:58.839Z,27.95
2017-12-26T07:27:27.161Z,25.05
2017-12-26T07:29:56.265Z,25.60
2017-12-26T07:32:25.471Z,21.87
2017-12-26T07:34:53.860Z,22.65
2017-12-26T07:37:28.712Z,19.87
2017-12-26T07:39:57.567Z,22.55
2017-12-26T07:42:25.986Z,23.00
2017-12-26T07:44:54.928Z,24.25
2017-12-26T07:47:23.737Z,31.70
2017-12-26T07:49:53.148Z,28.05
2017-12-26T07:52:21.577Z,31.50
2017-12-26T07:54:50.358Z,29.98
2017-12-26T07:57:18.747Z,27.20
2017-12-26T07:59:47.064Z,32.20
2017-12-26T08:02:16.189Z,34.40
2017-12-26T08:04:45.203Z,34.85
2017-12-26T08:07:13.528Z,31.77
2017-12-26T08:09:42.068Z,33.83
2017-12-26T08:12:11.005Z,28.87
2017-12-26T08:14:39.512Z,23.65
2017-12-26T08:17:07.908Z,23.85
2017-12-26T08:19:36.243Z,24.58
2017-12-26T08:22:06.477Z,33.13
2017-12-26T08:24:35.592Z,30.05
2017-12-26T08:27:04.017Z,21.85
2017-12-26T08:29:32.889Z,24.12
2017-12-26T08:32:01.264Z,24.20
2017-12-26T08:34:30.236Z,24.20
2017-12-26T08:36:58.685Z,20.58
2017-12-26T08:39:27.727Z,19.42
2017-12-26T08:41:56.254Z,20.90
2017-12-26T08:44:25.049Z,19.50
2017-12-26T08:46:54.168Z,18.40
2017-12-26T08:49:23.088Z,17.40
2017-12-26T08:51:51.497Z,16.95
2017-12-26T08:54:20.002Z,17.50
2017-12-26T08:56:48.892Z,15.83
2017-12-26T08:59:17.952Z,18.43
2017-12-26T09:01:46.752Z,15.00
2017-12-26T09:04:15.704Z,15.50
2017-12-26T09:06:44.599Z,14.80
2017-12-26T09:09:12.912Z,11.80
2017-12-26T09:11:41.292Z,14.02
2017-12-26T09:14:10.121Z,15.07
2017-12-26T09:16:39.260Z,15.13
2017-12-26T09:19:08.393Z,28.60
2017-12-26T09:21:37.501Z,15.83
2017-12-26T09:24:06.427Z,24.90
2017-12-26T09:26:34.739Z,17.10
2017-12-26T09:29:03.144Z,16.20
2017-12-26T09:31:31.739Z,17.67
2017-12-26T09:34:01.554Z,14.83
2017-12-26T09:36:30.431Z,14.37
2017-12-26T09:39:00.168Z,13.73
2017-12-26T09:41:28.488Z,14.47
2017-12-26T09:43:57.752Z,17.00
2017-12-26T09:46:26.776Z,16.33
2017-12-26T09:48:56.720Z,15.07
2017-12-26T09:51:25.477Z,14.10
2017-12-26T09:53:54.736Z,21.37
2017-12-26T09:56:23.067Z,15.30
2017-12-26T09:58:52.342Z,18.83
2017-12-26T10:01:20.716Z,20.50
2017-12-26T10:03:49.024Z,16.47
2017-12-26T10:06:17.804Z,16.87
2017-12-26T10:08:47.034Z,20.80
2017-12-26T10:11:15.552Z,18.50
2017-12-26T10:13:44.268Z,18.57
2017-12-26T10:16:12.585Z,20.57
2017-12-26T10:18:41.687Z,18.57
2017-12-26T10:21:10.593Z,17.23
2017-12-26T10:23:38.976Z,16.80
2017-12-26T10:26:07.361Z,13.63
2017-12-26T10:28:35.681Z,8.53
2017-12-26T10:31:04.597Z,7.43
2017-12-26T10:33:33.789Z,8.37
2017-12-26T10:36:02.189Z,4.77
2017-12-26T10:38:31.168Z,6.63
2017-12-26T10:41:00.262Z,4.70
2017-12-26T10:43:30.088Z,6.23
2017-12-26T10:45:58.571Z,4.13
2017-12-26T10:48:27.365Z,5.70
2017-12-26T10:50:55.770Z,8.27
2017-12-26T10:53:24.217Z,3.50
2017-12-26T10:55:53.821Z,4.50
2017-12-26T10:58:23.067Z,5.70
2017-12-26T11:00:52.905Z,3.70
2017-12-26T11:03:24.085Z,3.37
2017-12-26T11:05:54.450Z,3.20
2017-12-26T11:08:23.387Z,2.80
2017-12-26T11:10:52.638Z,3.20
2017-12-26T11:13:20.961Z,6.47
2017-12-26T11:15:50.145Z,2.67
2017-12-26T11:18:19.256Z,3.80
2017-12-26T11:20:48.349Z,3.53
2017-12-26T11:23:17.346Z,3.03
2017-12-26T11:25:46.774Z,2.40
2017-12-26T11:28:15.185Z,2.47
2017-12-26T11:30:43.813Z,2.87
2017-12-26T11:33:12.918Z,3.10
2017-12-26T11:35:41.813Z,3.30
2017-12-26T11:38:10.212Z,3.13
2017-12-26T11:40:38.662Z,2.90
2017-12-26T11:43:07.469Z,5.40
2017-12-26T11:45:36.710Z,2.77
2017-12-26T11:48:05.820Z,2.70
2017-12-26T11:50:34.887Z,2.30
2017-12-26T11:53:03.995Z,2.63
2017-12-26T11:55:32.459Z,2.90
2017-12-26T11:58:01.404Z,7.00
2017-12-26T12:00:30.381Z,7.47
2017-12-26T12:02:59.513Z,2.10
2017-12-26T12:05:28.385Z,2.10
2017-12-26T12:08:01.102Z,1.80
2017-12-26T12:10:30.138Z,4.60
2017-12-26T12:12:59.254Z,2.40
2017-12-26T12:15:28.509Z,2.60
2017-12-26T12:17:57.441Z,2.20
2017-12-26T12:20:26.477Z,2.40
2017-12-26T12:22:55.162Z,1.97
2017-12-26T12:25:23.864Z,2.13
2017-12-26T12:27:52.186Z,3.10
2017-12-26T12:30:21.294Z,1.77
2017-12-26T12:32:49.801Z,1.73
2017-12-26T12:35:18.582Z,3.33
2017-12-26T12:37:47.167Z,2.10
2017-12-26T12:40:16.057Z,1.73
2017-12-26T12:42:45.234Z,2.20
2017-12-26T12:45:14.231Z,1.80
2017-12-26T12:47:42.913Z,1.90
2017-12-26T12:50:11.225Z,1.70
2017-12-26T12:52:40.811Z,1.60
2017-12-26T12:55:09.721Z,1.50
2017-12-26T12:57:38.041Z,1.43
2017-12-26T13:00:07.289Z,1.77
2017-12-26T13:02:36.081Z,1.70
2017-12-26T13:05:04.971Z,1.60
2017-12-26T13:07:33.677Z,1.40
2017-12-26T13:10:02.705Z,1.70
2017-12-26T13:12:31.020Z,1.67
2017-12-26T13:15:00.115Z,1.50
2017-12-26T13:17:29.133Z,1.63
2017-12-26T13:19:58.285Z,1.50
2017-12-26T13:22:27.600Z,2.40
2017-12-26T13:24:56.652Z,1.93
2017-12-26T13:27:25.701Z,6.83
2017-12-26T13:29:54.458Z,1.70
2017-12-26T13:32:23.110Z,3.67
2017-12-26T13:34:51.518Z,1.73
2017-12-26T13:37:20.333Z,3.77
2017-12-26T13:39:48.771Z,5.93
2017-12-26T13:42:17.146Z,2.00
2017-12-26T13:44:45.860Z,2.37
2017-12-26T13:47:14.389Z,3.53
2017-12-26T13:49:42.747Z,2.83
2017-12-26T13:52:11.749Z,2.70
2017-12-26T13:54:40.210Z,3.60
2017-12-26T13:57:09.370Z,4.70
2017-12-26T13:59:37.679Z,4.67
2017-12-26T14:02:06.500Z,3.47
2017-12-26T14:04:34.928Z,4.40
2017-12-26T14:07:03.783Z,1.80
2017-12-26T14:09:33.031Z,1.70
2017-12-26T14:12:02.160Z,1.63
2017-12-26T14:14:31.080Z,1.50
2017-12-26T14:16:59.458Z,1.80
2017-12-26T14:19:28.586Z,1.60
2017-12-26T14:21:57.624Z,1.60
2017-12-26T14:24:25.940Z,1.40
2017-12-26T14:26:54.464Z,1.77
2017-12-26T14:29:23.272Z,1.60
2017-12-26T14:31:51.626Z,1.90
2017-12-26T14:34:20.736Z,2.30
2017-12-26T14:36:49.824Z,1.90
2017-12-26T14:39:18.724Z,1.50
2017-12-26T14:41:48.107Z,2.10
2017-12-26T14:44:16.569Z,1.80
2017-12-26T14:46:45.267Z,1.50
2017-12-26T14:49:13.618Z,3.73
2017-12-26T14:51:42.056Z,3.20
2017-12-26T14:54:10.672Z,1.80
2017-12-26T14:56:40.069Z,1.80
2017-12-26T14:59:08.416Z,2.30
2017-12-26T15:01:37.180Z,1.83
2017-12-26T15:04:05.766Z,1.60
2017-12-26T15:06:34.872Z,3.60
2017-12-26T15:09:03.472Z,4.30
2017-12-26T15:11:32.332Z,3.50
2017-12-26T15:14:01.338Z,3.60
2017-12-26T15:16:30.260Z,2.93
2017-12-26T15:18:58.624Z,2.63
2017-12-26T15:21:27.964Z,3.47
2017-12-26T15:23:56.855Z,2.50
2017-12-26T15:26:25.157Z,1.83
2017-12-26T15:28:53.597Z,3.13
2017-12-26T15:31:22.633Z,3.00
2017-12-26T15:33:51.317Z,6.90
2017-12-26T15:36:21.237Z,4.03
2017-12-26T15:38:51.976Z,5.70
2017-12-26T15:41:22.281Z,6.57
2017-12-26T15:43:50.808Z,4.60
2017-12-26T15:46:20.363Z,3.10
2017-12-26T15:48:48.722Z,5.37
2017-12-26T15:51:17.622Z,4.50
2017-12-26T15:53:45.968Z,3.57
2017-12-26T15:56:14.416Z,5.37
2017-12-26T15:58:43.352Z,3.37
2017-12-26T16:01:11.677Z,3.03
2017-12-26T16:03:40.889Z,2.73
2017-12-26T16:06:09.984Z,5.53
2017-12-26T16:08:38.932Z,4.40
2017-12-26T16:11:07.347Z,2.83
2017-12-26T16:13:36.351Z,2.63
2017-12-26T16:16:05.603Z,2.73
2017-12-26T16:18:34.585Z,2.73
2017-12-26T16:21:03.456Z,3.80
2017-12-26T16:23:31.844Z,2.87
2017-12-26T16:26:00.187Z,3.23
2017-12-26T16:28:29.247Z,2.30
2017-12-26T16:30:58.369Z,3.43
2017-12-26T16:33:26.870Z,3.90
2017-12-26T16:35:55.685Z,4.43
2017-12-26T16:38:24.901Z,3.97
2017-12-26T16:40:54.099Z,4.40
2017-12-26T16:43:22.642Z,4.40
2017-12-26T16:45:54.646Z,5.07
2017-12-26T16:48:23.625Z,4.63
2017-12-26T16:50:51.996Z,3.07
2017-12-26T16:53:20.464Z,7.43
2017-12-26T16:55:49.437Z,4.57
2017-12-26T16:58:18.239Z,7.80
2017-12-26T17:00:47.521Z,4.70
2017-12-26T17:03:15.914Z,8.03
2017-12-26T17:05:44.851Z,5.60
2017-12-26T17:08:13.332Z,6.07
2017-12-26T17:10:42.214Z,9.00
2017-12-26T17:13:11.485Z,7.03
2017-12-26T17:15:40.457Z,6.20
2017-12-26T17:18:08.841Z,6.13
2017-12-26T17:20:37.793Z,8.40
2017-12-26T17:23:06.213Z,5.00
2017-12-26T17:25:35.243Z,9.67
2017-12-26T17:28:04.314Z,6.00
2017-12-26T17:30:33.327Z,11.33
2017-12-26T17:33:01.687Z,10.47
2017-12-26T17:35:30.305Z,14.73
2017-12-26T17:37:59.085Z,29.10
2017-12-26T17:40:27.989Z,73.53
2017-12-26T17:42:56.414Z,30.20
2017-12-26T17:45:25.565Z,13.23
2017-12-26T17:48:08.526Z,8.13
2017-12-26T17:50:37.345Z,6.78
2017-12-26T17:53:05.852Z,6.17
2017-12-26T17:55:34.224Z,6.20
2017-12-26T17:58:03.012Z,5.47
2017-12-26T18:00:31.378Z,12.77
2017-12-26T18:02:59.973Z,7.60
2017-12-26T18:05:28.436Z,5.87
2017-12-26T18:07:58.035Z,6.07
2017-12-26T18:10:27.080Z,6.60
2017-12-26T18:12:55.428Z,9.77
2017-12-26T18:15:23.832Z,8.77
2017-12-26T18:17:52.706Z,7.00
2017-12-26T18:20:22.202Z,6.80
2017-12-26T18:22:50.805Z,7.07
2017-12-26T18:25:19.267Z,5.77
2017-12-26T18:27:47.855Z,8.17
2017-12-26T18:32:52.013Z,6.60
2017-12-26T18:35:20.558Z,7.10
2017-12-26T18:37:49.758Z,9.47
2017-12-26T18:40:19.441Z,6.77
2017-12-26T18:42:47.751Z,6.53
2017-12-26T18:45:16.867Z,6.47
2017-12-26T18:47:45.272Z,10.33
2017-12-26T18:50:14.753Z,8.10
2017-12-26T18:52:44.763Z,9.77
2017-12-26T18:55:13.440Z,10.90
2017-12-26T18:57:43.247Z,12.07
2017-12-26T19:00:12.321Z,49.80
2017-12-26T19:02:41.568Z,53.57
2017-12-26T19:05:10.499Z,25.83
2017-12-26T19:07:38.798Z,19.10
2017-12-26T19:10:08.724Z,22.08
2017-12-26T19:12:37.278Z,18.23
2017-12-26T19:15:06.017Z,17.50
2017-12-26T19:17:34.409Z,12.37
2017-12-26T19:20:02.962Z,14.73
2017-12-26T19:22:31.711Z,11.70
2017-12-26T19:25:00.165Z,10.80
2017-12-26T19:27:28.517Z,11.57
2017-12-26T19:29:57.753Z,9.20
2017-12-26T19:32:27.287Z,6.50
2017-12-26T19:34:56.373Z,10.37
2017-12-26T19:37:25.403Z,10.30
2017-12-26T19:39:53.724Z,22.43
2017-12-26T19:42:22.804Z,13.60
2017-12-26T19:44:51.194Z,11.37
2017-12-26T19:47:19.519Z,9.02
2017-12-26T19:49:47.898Z,14.25
2017-12-26T19:52:17.197Z,23.98
2017-12-26T19:54:46.339Z,12.10
2017-12-26T19:57:14.727Z,15.77
2017-12-26T19:59:43.152Z,9.27
2017-12-26T20:02:11.500Z,20.65
2017-12-26T20:04:39.905Z,15.20
2017-12-26T20:07:08.434Z,9.15
2017-12-26T20:09:36.872Z,12.98
2017-12-26T20:12:05.323Z,13.45
2017-12-26T20:14:33.696Z,10.05
2017-12-26T20:17:02.163Z,8.55
2017-12-26T20:19:30.548Z,13.55
2017-12-26T20:21:58.953Z,13.05
2017-12-26T20:24:27.378Z,11.77
2017-12-26T20:26:56.887Z,15.40
2017-12-26T20:29:25.291Z,12.35
2017-12-26T20:31:53.816Z,10.90
2017-12-26T20:34:22.186Z,12.30
2017-12-26T20:36:51.319Z,14.63
2017-12-26T20:39:19.800Z,15.20
2017-12-26T20:41:48.177Z,24.50
2017-12-26T20:44:16.553Z,16.67
2017-12-26T20:46:45.014Z,18.02
2017-12-26T20:49:14.101Z,15.10
2017-12-26T20:51:43.302Z,12.65
2017-12-26T20:54:11.824Z,9.20
2017-12-26T20:56:40.199Z,10.35
2017-12-26T20:59:08.569Z,12.37
2017-12-26T21:01:37.018Z,13.25
2017-12-26T21:04:05.421Z,9.18
2017-12-26T21:06:33.832Z,15.25
2017-12-26T21:09:02.267Z,13.32
2017-12-26T21:11:30.743Z,19.08
2017-12-26T21:13:59.111Z,12.20
2017-12-26T21:16:28.419Z,11.73
2017-12-26T21:18:57.572Z,11.18
2017-12-26T21:21:25.956Z,11.52
2017-12-26T21:23:54.395Z,14.32
2017-12-26T21:26:22.779Z,10.48
2017-12-26T21:28:51.240Z,9.75
2017-12-26T21:31:20.438Z,12.65
2017-12-26T21:33:48.819Z,9.55
2017-12-26T21:36:17.201Z,10.48
2017-12-26T21:38:45.981Z,11.43
2017-12-26T21:41:15.166Z,14.82
2017-12-26T21:43:43.552Z,12.48
2017-12-26T21:46:12.751Z,13.07
2017-12-26T21:48:41.140Z,11.75
2017-12-26T21:51:10.298Z,10.82
2017-12-26T21:53:38.761Z,11.05
2017-12-26T21:56:07.139Z,9.40
2017-12-26T21:58:35.511Z,14.05
2017-12-26T22:01:03.929Z,17.93
2017-12-26T22:03:32.303Z,13.23
2017-12-26T22:06:00.683Z,16.17
2017-12-26T22:08:29.147Z,18.05
2017-12-26T22:10:57.529Z,8.18
2017-12-26T22:13:25.907Z,10.75
2017-12-26T22:15:54.342Z,13.35
2017-12-26T22:18:23.344Z,9.43
2017-12-26T22:20:52.186Z,12.07
2017-12-26T22:23:21.323Z,12.25
2017-12-26T22:25:50.457Z,9.73
2017-12-26T22:28:19.487Z,10.30
2017-12-26T22:30:48.588Z,8.73
2017-12-26T22:33:17.458Z,10.90
2017-12-26T22:35:46.330Z,14.95
2017-12-26T22:38:15.167Z,11.88
2017-12-26T22:40:43.948Z,14.63
2017-12-26T22:43:12.782Z,11.57
2017-12-26T22:45:41.513Z,8.23
2017-12-26T22:48:10.709Z,10.17
2017-12-26T22:50:39.358Z,9.18
2017-12-26T22:53:07.973Z,8.32
2017-12-26T22:55:37.115Z,8.82
2017-12-26T22:58:06.160Z,17.52
2017-12-26T23:00:35.285Z,16.52
2017-12-26T23:03:04.437Z,18.37
2017-12-26T23:05:33.455Z,15.85
2017-12-26T23:08:02.555Z,12.30
2017-12-26T23:10:31.001Z,15.57
2017-12-26T23:12:59.967Z,14.32
2017-12-26T23:15:34.466Z,11.60
2017-12-26T23:18:08.581Z,18.08
2017-12-26T23:20:43.529Z,12.48
2017-12-26T23:23:17.882Z,15.70
2017-12-26T23:25:52.322Z,15.68
2017-12-26T23:28:26.929Z,8.35
2017-12-26T23:31:01.879Z,10.37
2017-12-26T23:33:35.792Z,9.30
2017-12-26T23:36:10.861Z,8.70
2017-12-26T23:52:14.518Z,19.05
2017-12-26T23:54:48.328Z,17.52
2017-12-26T23:57:23.176Z,16.08
2017-12-26T23:59:57.727Z,10.70
